Главная страница
METAR-TAF:

METAR-TAF

Аэропорты :

Wrigley, Северо-Западные Территории, Канада

широта: 63-13N, долгота: 123-26W, высота над уровнем моря: 150 м

Текущие метеонаблюдения

Эта сводка был подготовлена 15 часа и 5 минут назад, в 22:00 UTC
Ветер 13 Узел от юго-юго-восточный
Температура 0°C
Влажность 86%
Давление 1015 hPa
Видимость: 24.1 км
Сплошная облачность на высоте 1300 фута

METAR: CYWY 192200Z 15013KT 15SM OVC013 00/M02 A2997 RMK SC8 0.4/-1.2/TR/0 LAST OB/NXT 221400Z PRESFR SLP160

Время: 07:05 (13:05 UTC)


TAF: отсутствует

Метеонаблюдения и прогнозы для более 4000 аэропортов (сводки METAR и TAF).

Имеющиеся станции представлены на карте желтыми и красными точками.

Чтобы увидеть название станции, наведите на нее мышь.

Затем щелкните, чтобы увидеть метеонаблюдения и метеопрогнозы.

Управление картой: чтобы увеличить масштаб, щелкните зеленые кнопки с черным крестиком; чтобы уменьшить масштаб, щелкните зеленую кнопку с тире; для просмотра соседних карт щелкайте зеленые стрелки.


METAR-TAF: